KRYY/RYY METAR and TAF weather

Enter ICAO airport designator
Station Type Date Time Source
KRYY METAR 2019/09/20 20:50 UTC NOAA

KRYY 202050Z 09008KT 10SM CLR 28/13 A3025 RMK AO2 SLP961 T02780133 56018 $


Station Type Date Time Source
KRYY Decoded METAR 2019/09/20 20:50 UTC NOAA

Marietta, Cobb County-McCollum Field Airport, GA, United States (KRYY) 34-00-47N 084-35-55W
Sep 20, 2019 - 04:50 PM EDT / 2019.09.20 2050 UTC
Wind: from the E (090 degrees) at 9 MPH (8 KT):0
Visibility: 10 mile(s):0
Sky conditions: clear
Temperature: 82.0 F (27.8 C)
Dew Point: 55.9 F (13.3 C)
Relative Humidity: 40%
Pressure (altimeter): 30.25 in. Hg (1024 hPa)
Pressure tendency: 0.05 inches (1.8 hPa) lower than three hours ago
ob: KRYY 202050Z 09008KT 10SM CLR 28/13 A3025 RMK AO2 SLP961 T02780133 56018
cycle: 21

Station Type Date Time Source
KRYY TAF 2019/09/20 20:39 UTC NOAA

TAF
AMD KRYY 201935Z 2020/2118 11008KT P6SM FEW250
FM210000 09003KT P6SM SCT250
FM211400 13006KT P6SM SCT250

Example: see airport list